To NAV CANADA Home Page Login to a new session Search on AWWS site Feedback and Comments Disclaimer Vers la page française équivalente Tips FAQ What's new on the site To the Forecasts and Observations / NOTAM section To "File a Flight Plan" website Publications and other links Update of the User's profile FIC Telephone Numbers My Weather Data Folder Route Weather Data Regional Weather Data Local Weather Data To the Forecasts and Observations / NOTAM section
Request Generated 10/18/2017 at 03:49:39 UTC . Weather information available at that time is displayed.

METAR/TAF

SAINT JOHN/NB    

METAR CYSJ 180300Z 23009KT 15SM FEW020 SCT090 08/02 A3013 RMK SC1AC3
SLP209=
METAR CYSJ 180200Z 17004KT 15SM FEW020 03/01 A3014 RMK SC1 SLP211=
METAR CYSJ 180100Z VRB02KT 15SM FEW020 M00/M01 A3014 RMK SC1 SLP213=

TAF CYSJ 172339Z 1800/1812 VRB03KT P6SM SKC
BECMG 1801/1803 22010KT
FM180400 22010KT P6SM BKN060 TEMPO 1804/1811 P6SM -SHRA
FM181100 25008KT P6SM SCT030
RMK NXT FCST BY 180600Z=
Your time UTC time
Weather data provided by Environment Canada and NAV CANADA